<?xml version="1.0" encoding="UTF-8"?>
<gpx xmlns="http://www.topografix.com/GPX/1/1" xmlns:gpsies="http://www.gpsies.com/GPX/1/0" creator="GPSies http://www.gpsies.com - &amp;#1044;&amp;#1086;&amp;#1085;&amp;#1089;&amp;#1082;&amp;#1086;&amp;#1081; &amp;#1090;&amp;#1077;&amp;#1088;&amp;#1087;&amp;#1080;&amp;#1083;&amp;#1072;-200" version="1.1" xmlns:xsi="http://www.w3.org/2001/XMLSchema-instance" xsi:schemaLocation="http://www.topografix.com/GPX/1/1 http://www.topografix.com/GPX/1/1/gpx.xsd http://www.gpsies.com/GPX/1/0 http://www.gpsies.com/gpsies.xsd">
  <metadata>
    <name>Донской терпила-200</name>
    <author>
      <name>U_N_E</name>
      <link href="http://www.gpsies.com/mapUser.do?username=U_N_E">
        <text>U_N_E on GPSies.com</text>
        <type>GPSiesUserOnWeb</type>
      </link>
    </author>
    <link href="http://www.gpsies.com/map.do?fileId=cwsxlilhhqvqkrcn">
      <text>Донской терпила-200 on GPSies.com</text>
      <type>trackOnWeb</type>
    </link>
    <time>2017-05-31T23:17:25Z</time>
    <extensions>
      <gpsies:property>one-way trip</gpsies:property>
      <gpsies:trackLengthMeter>201040.56768780708</gpsies:trackLengthMeter>
      <gpsies:totalAscentMeter>1401.0</gpsies:totalAscentMeter>
      <gpsies:totalDescentMeter>1409.0</gpsies:totalDescentMeter>
      <gpsies:minHeightMeter>85.0</gpsies:minHeightMeter>
      <gpsies:maxHeightMeter>194.0</gpsies:maxHeightMeter>
    </extensions>
  </metadata>
  <trk>
    <name>Донской терпила-200 on GPSies.com</name>
    <link href="http://www.gpsies.com/map.do?fileId=cwsxlilhhqvqkrcn">
      <type>trackOnWeb</type>
    </link>
    <link href="http://www.gpsies.com/charts/cw/map/cwsxlilhhqvqkrcn_map.png">
      <type>elevationChartUrlMap</type>
    </link>
    <link href="http://www.gpsies.com/charts/cw/mapThumb/cwsxlilhhqvqkrcn_mapThumb.png">
      <type>elevationChartUrlMapThumb</type>
    </link>
    <link href="http://www.gpsies.com/charts/cw/tab/cwsxlilhhqvqkrcn_tab.png">
      <type>elevationChartUrlTab</type>
    </link>
    <trkseg>
      <trkpt lat="51.69426700" lon="39.23355100">
        <ele>99.000000</ele>
        <time>2010-01-01T00:00:00Z</time>
      </trkpt>
      <trkpt lat="51.67888880" lon="39.22741410">
        <ele>96.000000</ele>
        <time>2010-01-01T00:10:34Z</time>
      </trkpt>
      <trkpt lat="51.66688760" lon="39.22093920">
        <ele>102.00000</ele>
        <time>2010-01-01T00:19:00Z</time>
      </trkpt>
      <trkpt lat="51.66537700" lon="39.22029550">
        <ele>108.00000</ele>
        <time>2010-01-01T00:20:03Z</time>
      </trkpt>
      <trkpt lat="51.66416750" lon="39.21976440">
        <ele>100.00000</ele>
        <time>2010-01-01T00:20:53Z</time>
      </trkpt>
      <trkpt lat="51.66269020" lon="39.21912610">
        <ele>99.000000</ele>
        <time>2010-01-01T00:21:54Z</time>
      </trkpt>
      <trkpt lat="51.66188820" lon="39.21863790">
        <ele>98.000000</ele>
        <time>2010-01-01T00:22:29Z</time>
      </trkpt>
      <trkpt lat="51.66121600" lon="39.21747920">
        <ele>98.000000</ele>
        <time>2010-01-01T00:23:08Z</time>
      </trkpt>
      <trkpt lat="51.66083670" lon="39.21677110">
        <ele>101.00000</ele>
        <time>2010-01-01T00:23:31Z</time>
      </trkpt>
      <trkpt lat="51.65766870" lon="39.21391720">
        <ele>105.00000</ele>
        <time>2010-01-01T00:25:56Z</time>
      </trkpt>
      <trkpt lat="51.65635750" lon="39.21261900">
        <ele>105.00000</ele>
        <time>2010-01-01T00:26:58Z</time>
      </trkpt>
      <trkpt lat="51.65577180" lon="39.21231860">
        <ele>98.000000</ele>
        <time>2010-01-01T00:27:23Z</time>
      </trkpt>
      <trkpt lat="51.65293620" lon="39.21192160">
        <ele>97.000000</ele>
        <time>2010-01-01T00:29:17Z</time>
      </trkpt>
      <trkpt lat="51.65042000" lon="39.21162120">
        <ele>101.00000</ele>
        <time>2010-01-01T00:30:58Z</time>
      </trkpt>
      <trkpt lat="51.64848290" lon="39.21140670">
        <ele>97.000000</ele>
        <time>2010-01-01T00:32:15Z</time>
      </trkpt>
      <trkpt lat="51.64681190" lon="39.21122430">
        <ele>95.000000</ele>
        <time>2010-01-01T00:33:22Z</time>
      </trkpt>
      <trkpt lat="51.64304370" lon="39.21093460">
        <ele>97.000000</ele>
        <time>2010-01-01T00:35:53Z</time>
      </trkpt>
      <trkpt lat="51.64011410" lon="39.21074150">
        <ele>97.000000</ele>
        <time>2010-01-01T00:37:51Z</time>
      </trkpt>
      <trkpt lat="51.63785030" lon="39.20898190">
        <ele>96.000000</ele>
        <time>2010-01-01T00:39:31Z</time>
      </trkpt>
      <trkpt lat="51.63490700" lon="39.20670740">
        <ele>100.00000</ele>
        <time>2010-01-01T00:41:42Z</time>
      </trkpt>
      <trkpt lat="51.63424110" lon="39.20539850">
        <ele>102.00000</ele>
        <time>2010-01-01T00:42:24Z</time>
      </trkpt>
      <trkpt lat="51.63394810" lon="39.19861790">
        <ele>142.00000</ele>
        <time>2010-01-01T00:45:13Z</time>
      </trkpt>
      <trkpt lat="51.63393480" lon="39.19419760">
        <ele>150.00000</ele>
        <time>2010-01-01T00:47:03Z</time>
      </trkpt>
      <trkpt lat="51.63410790" lon="39.18990610">
        <ele>155.00000</ele>
        <time>2010-01-01T00:48:50Z</time>
      </trkpt>
      <trkpt lat="51.63365510" lon="39.18698780">
        <ele>153.00000</ele>
        <time>2010-01-01T00:50:04Z</time>
      </trkpt>
      <trkpt lat="51.63274950" lon="39.18112990">
        <ele>150.00000</ele>
        <time>2010-01-01T00:52:34Z</time>
      </trkpt>
      <trkpt lat="51.63522670" lon="39.17319050">
        <ele>149.00000</ele>
        <time>2010-01-01T00:56:15Z</time>
      </trkpt>
      <trkpt lat="51.63559960" lon="39.17267560">
        <ele>150.00000</ele>
        <time>2010-01-01T00:56:35Z</time>
      </trkpt>
      <trkpt lat="51.63593250" lon="39.17282580">
        <ele>151.00000</ele>
        <time>2010-01-01T00:56:49Z</time>
      </trkpt>
      <trkpt lat="51.63607900" lon="39.17224640">
        <ele>149.00000</ele>
        <time>2010-01-01T00:57:04Z</time>
      </trkpt>
      <trkpt lat="51.63565290" lon="39.17158120">
        <ele>149.00000</ele>
        <time>2010-01-01T00:57:28Z</time>
      </trkpt>
      <trkpt lat="51.63498700" lon="39.17198890">
        <ele>148.00000</ele>
        <time>2010-01-01T00:57:56Z</time>
      </trkpt>
      <trkpt lat="51.63192370" lon="39.17445650">
        <ele>154.00000</ele>
        <time>2010-01-01T01:00:14Z</time>
      </trkpt>
      <trkpt lat="51.62848720" lon="39.17572250">
        <ele>159.00000</ele>
        <time>2010-01-01T01:02:35Z</time>
      </trkpt>
      <trkpt lat="51.62591640" lon="39.17640920">
        <ele>154.00000</ele>
        <time>2010-01-01T01:04:19Z</time>
      </trkpt>
      <trkpt lat="51.62120060" lon="39.17593710">
        <ele>154.00000</ele>
        <time>2010-01-01T01:07:28Z</time>
      </trkpt>
      <trkpt lat="51.61816310" lon="39.17711730">
        <ele>155.00000</ele>
        <time>2010-01-01T01:09:33Z</time>
      </trkpt>
      <trkpt lat="51.61532520" lon="39.17861930">
        <ele>155.00000</ele>
        <time>2010-01-01T01:11:33Z</time>
      </trkpt>
      <trkpt lat="51.61459230" lon="39.17894120">
        <ele>154.00000</ele>
        <time>2010-01-01T01:12:03Z</time>
      </trkpt>
      <trkpt lat="51.61140780" lon="39.17924160">
        <ele>151.00000</ele>
        <time>2010-01-01T01:14:11Z</time>
      </trkpt>
      <trkpt lat="51.60896920" lon="39.17960640">
        <ele>147.00000</ele>
        <time>2010-01-01T01:15:49Z</time>
      </trkpt>
      <trkpt lat="51.60477140" lon="39.17842620">
        <ele>145.00000</ele>
        <time>2010-01-01T01:18:39Z</time>
      </trkpt>
      <trkpt lat="51.59948030" lon="39.17707440">
        <ele>149.00000</ele>
        <time>2010-01-01T01:22:14Z</time>
      </trkpt>
      <trkpt lat="51.59564150" lon="39.17694560">
        <ele>151.00000</ele>
        <time>2010-01-01T01:24:48Z</time>
      </trkpt>
      <trkpt lat="51.59165580" lon="39.17529340">
        <ele>148.00000</ele>
        <time>2010-01-01T01:27:32Z</time>
      </trkpt>
      <trkpt lat="51.58834960" lon="39.17374840">
        <ele>150.00000</ele>
        <time>2010-01-01T01:29:50Z</time>
      </trkpt>
      <trkpt lat="51.58689640" lon="39.17213910">
        <ele>153.00000</ele>
        <time>2010-01-01T01:31:01Z</time>
      </trkpt>
      <trkpt lat="51.58570980" lon="39.16971440">
        <ele>152.00000</ele>
        <time>2010-01-01T01:32:18Z</time>
      </trkpt>
      <trkpt lat="51.57968310" lon="39.15585270">
        <ele>151.00000</ele>
        <time>2010-01-01T01:39:18Z</time>
      </trkpt>
      <trkpt lat="51.57614940" lon="39.14769880">
        <ele>158.00000</ele>
        <time>2010-01-01T01:43:26Z</time>
      </trkpt>
      <trkpt lat="51.57201520" lon="39.13810720">
        <ele>165.00000</ele>
        <time>2010-01-01T01:48:16Z</time>
      </trkpt>
      <trkpt lat="51.55690230" lon="39.10351750">
        <ele>122.00000</ele>
        <time>2010-01-01T02:05:48Z</time>
      </trkpt>
      <trkpt lat="51.55508790" lon="39.09587860">
        <ele>110.00000</ele>
        <time>2010-01-01T02:09:12Z</time>
      </trkpt>
      <trkpt lat="51.55343350" lon="39.09081450">
        <ele>109.00000</ele>
        <time>2010-01-01T02:11:34Z</time>
      </trkpt>
      <trkpt lat="51.54991110" lon="39.08781050">
        <ele>98.000000</ele>
        <time>2010-01-01T02:14:14Z</time>
      </trkpt>
      <trkpt lat="51.54398640" lon="39.08240310">
        <ele>90.000000</ele>
        <time>2010-01-01T02:18:46Z</time>
      </trkpt>
      <trkpt lat="51.53902180" lon="39.07648080">
        <ele>91.000000</ele>
        <time>2010-01-01T02:22:54Z</time>
      </trkpt>
      <trkpt lat="51.53699310" lon="39.07261840">
        <ele>92.000000</ele>
        <time>2010-01-01T02:25:00Z</time>
      </trkpt>
      <trkpt lat="51.53667280" lon="39.06901350">
        <ele>90.000000</ele>
        <time>2010-01-01T02:26:30Z</time>
      </trkpt>
      <trkpt lat="51.53822100" lon="39.04807090">
        <ele>101.00000</ele>
        <time>2010-01-01T02:35:15Z</time>
      </trkpt>
      <trkpt lat="51.53672620" lon="39.04274940">
        <ele>107.00000</ele>
        <time>2010-01-01T02:37:41Z</time>
      </trkpt>
      <trkpt lat="51.53245500" lon="39.03656950">
        <ele>103.00000</ele>
        <time>2010-01-01T02:41:31Z</time>
      </trkpt>
      <trkpt lat="51.51456490" lon="39.01622770">
        <ele>105.00000</ele>
        <time>2010-01-01T02:56:08Z</time>
      </trkpt>
      <trkpt lat="51.50794110" lon="39.00944700">
        <ele>113.00000</ele>
        <time>2010-01-01T03:01:23Z</time>
      </trkpt>
      <trkpt lat="51.50639180" lon="39.01056280">
        <ele>109.00000</ele>
        <time>2010-01-01T03:02:30Z</time>
      </trkpt>
      <trkpt lat="51.49843110" lon="39.01082030">
        <ele>106.00000</ele>
        <time>2010-01-01T03:07:49Z</time>
      </trkpt>
      <trkpt lat="51.49581280" lon="39.01150700">
        <ele>101.00000</ele>
        <time>2010-01-01T03:09:35Z</time>
      </trkpt>
      <trkpt lat="51.49073610" lon="39.01442520">
        <ele>99.000000</ele>
        <time>2010-01-01T03:13:11Z</time>
      </trkpt>
      <trkpt lat="51.48907940" lon="39.01356690">
        <ele>99.000000</ele>
        <time>2010-01-01T03:14:21Z</time>
      </trkpt>
      <trkpt lat="51.48576580" lon="39.01562690">
        <ele>97.000000</ele>
        <time>2010-01-01T03:16:43Z</time>
      </trkpt>
      <trkpt lat="51.47892400" lon="39.02103420">
        <ele>93.000000</ele>
        <time>2010-01-01T03:21:48Z</time>
      </trkpt>
      <trkpt lat="51.47689260" lon="39.02283660">
        <ele>92.000000</ele>
        <time>2010-01-01T03:23:21Z</time>
      </trkpt>
      <trkpt lat="51.47336420" lon="39.02206420">
        <ele>90.000000</ele>
        <time>2010-01-01T03:25:44Z</time>
      </trkpt>
      <trkpt lat="51.46999600" lon="39.02069090">
        <ele>92.000000</ele>
        <time>2010-01-01T03:28:03Z</time>
      </trkpt>
      <trkpt lat="51.46865930" lon="39.01991840">
        <ele>92.000000</ele>
        <time>2010-01-01T03:29:00Z</time>
      </trkpt>
      <trkpt lat="51.46726920" lon="39.01871680">
        <ele>92.000000</ele>
        <time>2010-01-01T03:30:03Z</time>
      </trkpt>
      <trkpt lat="51.46545120" lon="39.01837340">
        <ele>94.000000</ele>
        <time>2010-01-01T03:31:16Z</time>
      </trkpt>
      <trkpt lat="51.46272400" lon="39.01888840">
        <ele>96.000000</ele>
        <time>2010-01-01T03:33:06Z</time>
      </trkpt>
      <trkpt lat="51.45903420" lon="39.02129170">
        <ele>96.000000</ele>
        <time>2010-01-01T03:35:46Z</time>
      </trkpt>
      <trkpt lat="51.45545090" lon="39.02472490">
        <ele>105.00000</ele>
        <time>2010-01-01T03:38:33Z</time>
      </trkpt>
      <trkpt lat="51.45256270" lon="39.02618400">
        <ele>130.00000</ele>
        <time>2010-01-01T03:40:34Z</time>
      </trkpt>
      <trkpt lat="51.44309470" lon="39.02704230">
        <ele>160.00000</ele>
        <time>2010-01-01T03:46:54Z</time>
      </trkpt>
      <trkpt lat="51.44031270" lon="39.02644150">
        <ele>160.00000</ele>
        <time>2010-01-01T03:48:46Z</time>
      </trkpt>
      <trkpt lat="51.43977770" lon="39.02732130">
        <ele>160.00000</ele>
        <time>2010-01-01T03:49:17Z</time>
      </trkpt>
      <trkpt lat="51.43609930" lon="39.03532500">
        <ele>156.00000</ele>
        <time>2010-01-01T03:53:25Z</time>
      </trkpt>
      <trkpt lat="51.43425330" lon="39.03946630">
        <ele>140.00000</ele>
        <time>2010-01-01T03:55:32Z</time>
      </trkpt>
      <trkpt lat="51.43078860" lon="39.04229870">
        <ele>99.000000</ele>
        <time>2010-01-01T03:58:07Z</time>
      </trkpt>
      <trkpt lat="51.42903600" lon="39.04330730">
        <ele>93.000000</ele>
        <time>2010-01-01T03:59:22Z</time>
      </trkpt>
      <trkpt lat="51.42783190" lon="39.04294250">
        <ele>98.000000</ele>
        <time>2010-01-01T04:00:11Z</time>
      </trkpt>
      <trkpt lat="51.42261390" lon="39.04281370">
        <ele>93.000000</ele>
        <time>2010-01-01T04:03:40Z</time>
      </trkpt>
      <trkpt lat="51.42182440" lon="39.04217000">
        <ele>96.000000</ele>
        <time>2010-01-01T04:04:15Z</time>
      </trkpt>
      <trkpt lat="51.41975040" lon="39.04201980">
        <ele>95.000000</ele>
        <time>2010-01-01T04:05:38Z</time>
      </trkpt>
      <trkpt lat="51.41611060" lon="39.04214850">
        <ele>98.000000</ele>
        <time>2010-01-01T04:08:04Z</time>
      </trkpt>
      <trkpt lat="51.41346080" lon="39.04193400">
        <ele>96.000000</ele>
        <time>2010-01-01T04:09:50Z</time>
      </trkpt>
      <trkpt lat="51.41166740" lon="39.04266350">
        <ele>91.000000</ele>
        <time>2010-01-01T04:11:04Z</time>
      </trkpt>
      <trkpt lat="51.40975350" lon="39.04210560">
        <ele>104.00000</ele>
        <time>2010-01-01T04:12:22Z</time>
      </trkpt>
      <trkpt lat="51.40773250" lon="39.04152630">
        <ele>116.00000</ele>
        <time>2010-01-01T04:13:45Z</time>
      </trkpt>
      <trkpt lat="51.40427910" lon="39.04272790">
        <ele>115.00000</ele>
        <time>2010-01-01T04:16:06Z</time>
      </trkpt>
      <trkpt lat="51.40193650" lon="39.04401540">
        <ele>109.00000</ele>
        <time>2010-01-01T04:17:45Z</time>
      </trkpt>
      <trkpt lat="51.40046400" lon="39.04513120">
        <ele>108.00000</ele>
        <time>2010-01-01T04:18:50Z</time>
      </trkpt>
      <trkpt lat="51.39958040" lon="39.04536720">
        <ele>113.00000</ele>
        <time>2010-01-01T04:19:26Z</time>
      </trkpt>
      <trkpt lat="51.39845590" lon="39.04442310">
        <ele>117.00000</ele>
        <time>2010-01-01T04:20:17Z</time>
      </trkpt>
      <trkpt lat="51.39777310" lon="39.04450890">
        <ele>113.00000</ele>
        <time>2010-01-01T04:20:44Z</time>
      </trkpt>
      <trkpt lat="51.39666200" lon="39.04553890">
        <ele>99.000000</ele>
        <time>2010-01-01T04:21:36Z</time>
      </trkpt>
      <trkpt lat="51.39541020" lon="39.04705160">
        <ele>98.000000</ele>
        <time>2010-01-01T04:22:39Z</time>
      </trkpt>
      <trkpt lat="51.39474740" lon="39.04767390">
        <ele>104.00000</ele>
        <time>2010-01-01T04:23:09Z</time>
      </trkpt>
      <trkpt lat="51.39367630" lon="39.04819960">
        <ele>113.00000</ele>
        <time>2010-01-01T04:23:54Z</time>
      </trkpt>
      <trkpt lat="51.39318760" lon="39.04904720">
        <ele>114.00000</ele>
        <time>2010-01-01T04:24:23Z</time>
      </trkpt>
      <trkpt lat="51.39263200" lon="39.04933690">
        <ele>116.00000</ele>
        <time>2010-01-01T04:24:46Z</time>
      </trkpt>
      <trkpt lat="51.39259850" lon="39.05128950">
        <ele>105.00000</ele>
        <time>2010-01-01T04:25:35Z</time>
      </trkpt>
      <trkpt lat="51.39059680" lon="39.05263060">
        <ele>110.00000</ele>
        <time>2010-01-01T04:27:02Z</time>
      </trkpt>
      <trkpt lat="51.38895650" lon="39.05295250">
        <ele>111.00000</ele>
        <time>2010-01-01T04:28:08Z</time>
      </trkpt>
      <trkpt lat="51.38811960" lon="39.05294170">
        <ele>107.00000</ele>
        <time>2010-01-01T04:28:42Z</time>
      </trkpt>
      <trkpt lat="51.38708190" lon="39.05521630">
        <ele>97.000000</ele>
        <time>2010-01-01T04:29:52Z</time>
      </trkpt>
      <trkpt lat="51.38536110" lon="39.05828470">
        <ele>106.00000</ele>
        <time>2010-01-01T04:31:35Z</time>
      </trkpt>
      <trkpt lat="51.38469150" lon="39.05941120">
        <ele>107.00000</ele>
        <time>2010-01-01T04:32:14Z</time>
      </trkpt>
      <trkpt lat="51.38220730" lon="39.06252260">
        <ele>115.00000</ele>
        <time>2010-01-01T04:34:20Z</time>
      </trkpt>
      <trkpt lat="51.38113600" lon="39.06352040">
        <ele>114.00000</ele>
        <time>2010-01-01T04:35:10Z</time>
      </trkpt>
      <trkpt lat="51.37866500" lon="39.06605240">
        <ele>109.00000</ele>
        <time>2010-01-01T04:37:07Z</time>
      </trkpt>
      <trkpt lat="51.37582550" lon="39.06727550">
        <ele>103.00000</ele>
        <time>2010-01-01T04:39:05Z</time>
      </trkpt>
      <trkpt lat="51.37376280" lon="39.06873460">
        <ele>94.000000</ele>
        <time>2010-01-01T04:40:35Z</time>
      </trkpt>
      <trkpt lat="51.37219560" lon="39.06922810">
        <ele>99.000000</ele>
        <time>2010-01-01T04:41:39Z</time>
      </trkpt>
      <trkpt lat="51.37042740" lon="39.06980750">
        <ele>110.00000</ele>
        <time>2010-01-01T04:42:51Z</time>
      </trkpt>
      <trkpt lat="51.36808310" lon="39.07193180">
        <ele>109.00000</ele>
        <time>2010-01-01T04:44:39Z</time>
      </trkpt>
      <trkpt lat="51.36744010" lon="39.07246820">
        <ele>104.00000</ele>
        <time>2010-01-01T04:45:08Z</time>
      </trkpt>
      <trkpt lat="51.36576550" lon="39.07158850">
        <ele>109.00000</ele>
        <time>2010-01-01T04:46:19Z</time>
      </trkpt>
      <trkpt lat="51.36488790" lon="39.07274720">
        <ele>111.00000</ele>
        <time>2010-01-01T04:47:04Z</time>
      </trkpt>
      <trkpt lat="51.36405730" lon="39.07388440">
        <ele>116.00000</ele>
        <time>2010-01-01T04:47:48Z</time>
      </trkpt>
      <trkpt lat="51.36303910" lon="39.07763950">
        <ele>140.00000</ele>
        <time>2010-01-01T04:49:30Z</time>
      </trkpt>
      <trkpt lat="51.36259030" lon="39.07864800">
        <ele>147.00000</ele>
        <time>2010-01-01T04:50:01Z</time>
      </trkpt>
      <trkpt lat="51.36141120" lon="39.07997840">
        <ele>160.00000</ele>
        <time>2010-01-01T04:50:59Z</time>
      </trkpt>
      <trkpt lat="51.36068770" lon="39.08047190">
        <ele>168.00000</ele>
        <time>2010-01-01T04:51:31Z</time>
      </trkpt>
      <trkpt lat="51.36031250" lon="39.08083670">
        <ele>168.00000</ele>
        <time>2010-01-01T04:51:48Z</time>
      </trkpt>
      <trkpt lat="51.35952200" lon="39.08085820">
        <ele>170.00000</ele>
        <time>2010-01-01T04:52:20Z</time>
      </trkpt>
      <trkpt lat="51.35803470" lon="39.08115860">
        <ele>178.00000</ele>
        <time>2010-01-01T04:53:20Z</time>
      </trkpt>
      <trkpt lat="51.35720400" lon="39.08133020">
        <ele>179.00000</ele>
        <time>2010-01-01T04:53:53Z</time>
      </trkpt>
      <trkpt lat="51.35631960" lon="39.08107280">
        <ele>187.00000</ele>
        <time>2010-01-01T04:54:29Z</time>
      </trkpt>
      <trkpt lat="51.35589080" lon="39.08118000">
        <ele>190.00000</ele>
        <time>2010-01-01T04:54:47Z</time>
      </trkpt>
      <trkpt lat="51.35586400" lon="39.08178090">
        <ele>189.00000</ele>
        <time>2010-01-01T04:55:02Z</time>
      </trkpt>
      <trkpt lat="51.35370660" lon="39.08729550">
        <ele>188.00000</ele>
        <time>2010-01-01T04:57:44Z</time>
      </trkpt>
      <trkpt lat="51.35362610" lon="39.08845420">
        <ele>187.00000</ele>
        <time>2010-01-01T04:58:13Z</time>
      </trkpt>
      <trkpt lat="51.35457760" lon="39.08989190">
        <ele>185.00000</ele>
        <time>2010-01-01T04:59:06Z</time>
      </trkpt>
      <trkpt lat="51.35479200" lon="39.09128660">
        <ele>183.00000</ele>
        <time>2010-01-01T04:59:42Z</time>
      </trkpt>
      <trkpt lat="51.35363950" lon="39.09538500">
        <ele>186.00000</ele>
        <time>2010-01-01T05:01:34Z</time>
      </trkpt>
      <trkpt lat="51.35237990" lon="39.09999840">
        <ele>182.00000</ele>
        <time>2010-01-01T05:03:40Z</time>
      </trkpt>
      <trkpt lat="51.35227270" lon="39.10313120">
        <ele>178.00000</ele>
        <time>2010-01-01T05:04:58Z</time>
      </trkpt>
      <trkpt lat="51.35169640" lon="39.10819530">
        <ele>167.00000</ele>
        <time>2010-01-01T05:07:07Z</time>
      </trkpt>
      <trkpt lat="51.35114700" lon="39.11096330">
        <ele>156.00000</ele>
        <time>2010-01-01T05:08:20Z</time>
      </trkpt>
      <trkpt lat="51.35023570" lon="39.11566250">
        <ele>118.00000</ele>
        <time>2010-01-01T05:10:23Z</time>
      </trkpt>
      <trkpt lat="51.34953880" lon="39.11845200">
        <ele>113.00000</ele>
        <time>2010-01-01T05:11:38Z</time>
      </trkpt>
      <trkpt lat="51.34929760" lon="39.11875240">
        <ele>113.00000</ele>
        <time>2010-01-01T05:11:50Z</time>
      </trkpt>
      <trkpt lat="51.34785010" lon="39.11980390">
        <ele>104.00000</ele>
        <time>2010-01-01T05:12:54Z</time>
      </trkpt>
      <trkpt lat="51.34705940" lon="39.12066220">
        <ele>100.00000</ele>
        <time>2010-01-01T05:13:32Z</time>
      </trkpt>
      <trkpt lat="51.34655010" lon="39.12205690">
        <ele>94.000000</ele>
        <time>2010-01-01T05:14:12Z</time>
      </trkpt>
      <trkpt lat="51.34575930" lon="39.12491080">
        <ele>91.000000</ele>
        <time>2010-01-01T05:15:30Z</time>
      </trkpt>
      <trkpt lat="51.34541090" lon="39.12514680">
        <ele>96.000000</ele>
        <time>2010-01-01T05:15:46Z</time>
      </trkpt>
      <trkpt lat="51.34577270" lon="39.12669180">
        <ele>94.000000</ele>
        <time>2010-01-01T05:16:27Z</time>
      </trkpt>
      <trkpt lat="51.34478090" lon="39.12746420">
        <ele>107.00000</ele>
        <time>2010-01-01T05:17:11Z</time>
      </trkpt>
      <trkpt lat="51.34475410" lon="39.12853710">
        <ele>102.00000</ele>
        <time>2010-01-01T05:17:38Z</time>
      </trkpt>
      <trkpt lat="51.34427160" lon="39.13023230">
        <ele>98.000000</ele>
        <time>2010-01-01T05:18:24Z</time>
      </trkpt>
      <trkpt lat="51.34356120" lon="39.13149830">
        <ele>97.000000</ele>
        <time>2010-01-01T05:19:07Z</time>
      </trkpt>
      <trkpt lat="51.34239510" lon="39.13478130">
        <ele>93.000000</ele>
        <time>2010-01-01T05:20:41Z</time>
      </trkpt>
      <trkpt lat="51.34144340" lon="39.13681980">
        <ele>94.000000</ele>
        <time>2010-01-01T05:21:45Z</time>
      </trkpt>
      <trkpt lat="51.34088040" lon="39.13752790">
        <ele>96.000000</ele>
        <time>2010-01-01T05:22:14Z</time>
      </trkpt>
      <trkpt lat="51.34045150" lon="39.13911580">
        <ele>94.000000</ele>
        <time>2010-01-01T05:22:57Z</time>
      </trkpt>
      <trkpt lat="51.33951320" lon="39.14113280">
        <ele>91.000000</ele>
        <time>2010-01-01T05:24:00Z</time>
      </trkpt>
      <trkpt lat="51.33803860" lon="39.14417980">
        <ele>93.000000</ele>
        <time>2010-01-01T05:25:36Z</time>
      </trkpt>
      <trkpt lat="51.33656400" lon="39.14641140">
        <ele>97.000000</ele>
        <time>2010-01-01T05:26:57Z</time>
      </trkpt>
      <trkpt lat="51.33618870" lon="39.14737700">
        <ele>91.000000</ele>
        <time>2010-01-01T05:27:26Z</time>
      </trkpt>
      <trkpt lat="51.33566590" lon="39.14739840">
        <ele>94.000000</ele>
        <time>2010-01-01T05:27:47Z</time>
      </trkpt>
      <trkpt lat="51.33399010" lon="39.14907210">
        <ele>117.00000</ele>
        <time>2010-01-01T05:29:06Z</time>
      </trkpt>
      <trkpt lat="51.33153670" lon="39.15190450">
        <ele>123.00000</ele>
        <time>2010-01-01T05:31:07Z</time>
      </trkpt>
      <trkpt lat="51.32999480" lon="39.15462970">
        <ele>111.00000</ele>
        <time>2010-01-01T05:32:39Z</time>
      </trkpt>
      <trkpt lat="51.32968650" lon="39.15593860">
        <ele>101.00000</ele>
        <time>2010-01-01T05:33:14Z</time>
      </trkpt>
      <trkpt lat="51.32893560" lon="39.15668960">
        <ele>104.00000</ele>
        <time>2010-01-01T05:33:49Z</time>
      </trkpt>
      <trkpt lat="51.32790320" lon="39.15748350">
        <ele>106.00000</ele>
        <time>2010-01-01T05:34:35Z</time>
      </trkpt>
      <trkpt lat="51.32664290" lon="39.15847060">
        <ele>106.00000</ele>
        <time>2010-01-01T05:35:31Z</time>
      </trkpt>
      <trkpt lat="51.32217760" lon="39.16171070">
        <ele>98.000000</ele>
        <time>2010-01-01T05:38:48Z</time>
      </trkpt>
      <trkpt lat="51.31776560" lon="39.16332000">
        <ele>103.00000</ele>
        <time>2010-01-01T05:41:49Z</time>
      </trkpt>
      <trkpt lat="51.31568680" lon="39.16398520">
        <ele>100.00000</ele>
        <time>2010-01-01T05:43:14Z</time>
      </trkpt>
      <trkpt lat="51.31004020" lon="39.16553020">
        <ele>103.00000</ele>
        <time>2010-01-01T05:47:03Z</time>
      </trkpt>
      <trkpt lat="51.30727690" lon="39.16628120">
        <ele>97.000000</ele>
        <time>2010-01-01T05:48:55Z</time>
      </trkpt>
      <trkpt lat="51.30213900" lon="39.16761150">
        <ele>103.00000</ele>
        <time>2010-01-01T05:52:24Z</time>
      </trkpt>
      <trkpt lat="51.29981810" lon="39.16825530">
        <ele>100.00000</ele>
        <time>2010-01-01T05:53:58Z</time>
      </trkpt>
      <trkpt lat="51.29535020" lon="39.16819090">
        <ele>97.000000</ele>
        <time>2010-01-01T05:56:57Z</time>
      </trkpt>
      <trkpt lat="51.29309600" lon="39.16838400">
        <ele>96.000000</ele>
        <time>2010-01-01T05:58:27Z</time>
      </trkpt>
      <trkpt lat="51.28542010" lon="39.16625970">
        <ele>91.000000</ele>
        <time>2010-01-01T06:03:39Z</time>
      </trkpt>
      <trkpt lat="51.28399750" lon="39.16666740">
        <ele>89.000000</ele>
        <time>2010-01-01T06:04:37Z</time>
      </trkpt>
      <trkpt lat="51.28280310" lon="39.16831970">
        <ele>88.000000</ele>
        <time>2010-01-01T06:05:40Z</time>
      </trkpt>
      <trkpt lat="51.28193070" lon="39.16885610">
        <ele>89.000000</ele>
        <time>2010-01-01T06:06:17Z</time>
      </trkpt>
      <trkpt lat="51.28142060" lon="39.16997190">
        <ele>86.000000</ele>
        <time>2010-01-01T06:06:52Z</time>
      </trkpt>
      <trkpt lat="51.28041400" lon="39.17076580">
        <ele>86.000000</ele>
        <time>2010-01-01T06:07:37Z</time>
      </trkpt>
      <trkpt lat="51.27359510" lon="39.16514390">
        <ele>86.000000</ele>
        <time>2010-01-01T06:12:44Z</time>
      </trkpt>
      <trkpt lat="51.27160830" lon="39.16194670">
        <ele>87.000000</ele>
        <time>2010-01-01T06:14:37Z</time>
      </trkpt>
      <trkpt lat="51.27040010" lon="39.16061630">
        <ele>87.000000</ele>
        <time>2010-01-01T06:15:36Z</time>
      </trkpt>
      <trkpt lat="51.26507010" lon="39.16010140">
        <ele>87.000000</ele>
        <time>2010-01-01T06:19:09Z</time>
      </trkpt>
      <trkpt lat="51.26371400" lon="39.16126010">
        <ele>85.000000</ele>
        <time>2010-01-01T06:20:11Z</time>
      </trkpt>
      <trkpt lat="51.26333810" lon="39.15992970">
        <ele>87.000000</ele>
        <time>2010-01-01T06:20:48Z</time>
      </trkpt>
      <trkpt lat="51.26225050" lon="39.15252680">
        <ele>87.000000</ele>
        <time>2010-01-01T06:23:58Z</time>
      </trkpt>
      <trkpt lat="51.26141800" lon="39.14872880">
        <ele>92.000000</ele>
        <time>2010-01-01T06:25:39Z</time>
      </trkpt>
      <trkpt lat="51.26071980" lon="39.14761300">
        <ele>94.000000</ele>
        <time>2010-01-01T06:26:18Z</time>
      </trkpt>
      <trkpt lat="51.25776560" lon="39.14763450">
        <ele>107.00000</ele>
        <time>2010-01-01T06:28:17Z</time>
      </trkpt>
      <trkpt lat="51.25565720" lon="39.14905070">
        <ele>117.00000</ele>
        <time>2010-01-01T06:29:48Z</time>
      </trkpt>
      <trkpt lat="51.25438140" lon="39.14911500">
        <ele>125.00000</ele>
        <time>2010-01-01T06:30:39Z</time>
      </trkpt>
      <trkpt lat="51.25254150" lon="39.14971590">
        <ele>138.00000</ele>
        <time>2010-01-01T06:31:54Z</time>
      </trkpt>
      <trkpt lat="51.25111790" lon="39.15108910">
        <ele>150.00000</ele>
        <time>2010-01-01T06:33:01Z</time>
      </trkpt>
      <trkpt lat="51.24810940" lon="39.15023080">
        <ele>168.00000</ele>
        <time>2010-01-01T06:35:03Z</time>
      </trkpt>
      <trkpt lat="51.24456340" lon="39.15113210">
        <ele>174.00000</ele>
        <time>2010-01-01T06:37:27Z</time>
      </trkpt>
      <trkpt lat="51.24085580" lon="39.15271990">
        <ele>177.00000</ele>
        <time>2010-01-01T06:40:01Z</time>
      </trkpt>
      <trkpt lat="51.23849150" lon="39.15705440">
        <ele>181.00000</ele>
        <time>2010-01-01T06:42:25Z</time>
      </trkpt>
      <trkpt lat="51.23647630" lon="39.16050910">
        <ele>184.00000</ele>
        <time>2010-01-01T06:44:23Z</time>
      </trkpt>
      <trkpt lat="51.23540150" lon="39.16108840">
        <ele>183.00000</ele>
        <time>2010-01-01T06:45:09Z</time>
      </trkpt>
      <trkpt lat="51.23431330" lon="39.16117420">
        <ele>183.00000</ele>
        <time>2010-01-01T06:45:52Z</time>
      </trkpt>
      <trkpt lat="51.23349370" lon="39.15967220">
        <ele>187.00000</ele>
        <time>2010-01-01T06:46:42Z</time>
      </trkpt>
      <trkpt lat="51.23135740" lon="39.15984390">
        <ele>192.00000</ele>
        <time>2010-01-01T06:48:08Z</time>
      </trkpt>
      <trkpt lat="51.22892530" lon="39.16175360">
        <ele>193.00000</ele>
        <time>2010-01-01T06:49:56Z</time>
      </trkpt>
      <trkpt lat="51.22819970" lon="39.16252610">
        <ele>194.00000</ele>
        <time>2010-01-01T06:50:31Z</time>
      </trkpt>
      <trkpt lat="51.22414150" lon="39.16696780">
        <ele>191.00000</ele>
        <time>2010-01-01T06:53:48Z</time>
      </trkpt>
      <trkpt lat="51.22393990" lon="39.16774030">
        <ele>189.00000</ele>
        <time>2010-01-01T06:54:09Z</time>
      </trkpt>
      <trkpt lat="51.22031140" lon="39.16782610">
        <ele>188.00000</ele>
        <time>2010-01-01T06:56:34Z</time>
      </trkpt>
      <trkpt lat="51.21689760" lon="39.16969290">
        <ele>185.00000</ele>
        <time>2010-01-01T06:58:59Z</time>
      </trkpt>
      <trkpt lat="51.21547290" lon="39.17162410">
        <ele>181.00000</ele>
        <time>2010-01-01T07:00:14Z</time>
      </trkpt>
      <trkpt lat="51.21387340" lon="39.17344800">
        <ele>180.00000</ele>
        <time>2010-01-01T07:01:32Z</time>
      </trkpt>
      <trkpt lat="51.21260990" lon="39.17992830">
        <ele>168.00000</ele>
        <time>2010-01-01T07:04:22Z</time>
      </trkpt>
      <trkpt lat="51.21119850" lon="39.18582910">
        <ele>179.00000</ele>
        <time>2010-01-01T07:07:01Z</time>
      </trkpt>
      <trkpt lat="51.21127910" lon="39.19115060">
        <ele>186.00000</ele>
        <time>2010-01-01T07:09:14Z</time>
      </trkpt>
      <trkpt lat="51.21049950" lon="39.19460530">
        <ele>192.00000</ele>
        <time>2010-01-01T07:10:46Z</time>
      </trkpt>
      <trkpt lat="51.20977360" lon="39.19544210">
        <ele>193.00000</ele>
        <time>2010-01-01T07:11:22Z</time>
      </trkpt>
      <trkpt lat="51.20044350" lon="39.20647140">
        <ele>177.00000</ele>
        <time>2010-01-01T07:19:07Z</time>
      </trkpt>
      <trkpt lat="51.19942160" lon="39.20780180">
        <ele>170.00000</ele>
        <time>2010-01-01T07:20:00Z</time>
      </trkpt>
      <trkpt lat="51.19692070" lon="39.21408890">
        <ele>173.00000</ele>
        <time>2010-01-01T07:23:07Z</time>
      </trkpt>
      <trkpt lat="51.19654420" lon="39.21460390">
        <ele>174.00000</ele>
        <time>2010-01-01T07:23:26Z</time>
      </trkpt>
      <trkpt lat="51.19681310" lon="39.21524760">
        <ele>177.00000</ele>
        <time>2010-01-01T07:23:46Z</time>
      </trkpt>
      <trkpt lat="51.19525330" lon="39.22239300">
        <ele>191.00000</ele>
        <time>2010-01-01T07:26:56Z</time>
      </trkpt>
      <trkpt lat="51.19463470" lon="39.22533270">
        <ele>192.00000</ele>
        <time>2010-01-01T07:28:13Z</time>
      </trkpt>
      <trkpt lat="51.19460780" lon="39.22595500">
        <ele>192.00000</ele>
        <time>2010-01-01T07:28:29Z</time>
      </trkpt>
      <trkpt lat="51.19265800" lon="39.23644780">
        <ele>186.00000</ele>
        <time>2010-01-01T07:33:04Z</time>
      </trkpt>
      <trkpt lat="51.18887900" lon="39.24093240">
        <ele>165.00000</ele>
        <time>2010-01-01T07:36:12Z</time>
      </trkpt>
      <trkpt lat="51.18709030" lon="39.24535270">
        <ele>143.00000</ele>
        <time>2010-01-01T07:38:24Z</time>
      </trkpt>
      <trkpt lat="51.18352620" lon="39.24550290">
        <ele>118.00000</ele>
        <time>2010-01-01T07:40:47Z</time>
      </trkpt>
      <trkpt lat="51.17836100" lon="39.24672600">
        <ele>116.00000</ele>
        <time>2010-01-01T07:44:16Z</time>
      </trkpt>
      <trkpt lat="51.17665260" lon="39.24979440">
        <ele>112.00000</ele>
        <time>2010-01-01T07:45:59Z</time>
      </trkpt>
      <trkpt lat="51.17620860" lon="39.25241230">
        <ele>111.00000</ele>
        <time>2010-01-01T07:47:07Z</time>
      </trkpt>
      <trkpt lat="51.17716370" lon="39.25565240">
        <ele>94.000000</ele>
        <time>2010-01-01T07:48:37Z</time>
      </trkpt>
      <trkpt lat="51.17759420" lon="39.25994390">
        <ele>90.000000</ele>
        <time>2010-01-01T07:50:26Z</time>
      </trkpt>
      <trkpt lat="51.17920840" lon="39.25919290">
        <ele>102.00000</ele>
        <time>2010-01-01T07:51:33Z</time>
      </trkpt>
      <trkpt lat="51.17955820" lon="39.26290510">
        <ele>98.000000</ele>
        <time>2010-01-01T07:53:07Z</time>
      </trkpt>
      <trkpt lat="51.17794400" lon="39.26374190">
        <ele>89.000000</ele>
        <time>2010-01-01T07:54:15Z</time>
      </trkpt>
      <trkpt lat="51.17821300" lon="39.26801200">
        <ele>87.000000</ele>
        <time>2010-01-01T07:56:03Z</time>
      </trkpt>
      <trkpt lat="51.17861650" lon="39.27125210">
        <ele>87.000000</ele>
        <time>2010-01-01T07:57:26Z</time>
      </trkpt>
      <trkpt lat="51.17832060" lon="39.27537200">
        <ele>86.000000</ele>
        <time>2010-01-01T07:59:10Z</time>
      </trkpt>
      <trkpt lat="51.17694850" lon="39.27964210">
        <ele>86.000000</ele>
        <time>2010-01-01T08:01:10Z</time>
      </trkpt>
      <trkpt lat="51.17466160" lon="39.28813930">
        <ele>86.000000</ele>
        <time>2010-01-01T08:05:03Z</time>
      </trkpt>
      <trkpt lat="51.17016810" lon="39.29376120">
        <ele>87.000000</ele>
        <time>2010-01-01T08:08:51Z</time>
      </trkpt>
      <trkpt lat="51.17121750" lon="39.30354590">
        <ele>100.00000</ele>
        <time>2010-01-01T08:13:00Z</time>
      </trkpt>
      <trkpt lat="51.17036990" lon="39.30461880">
        <ele>104.00000</ele>
        <time>2010-01-01T08:13:44Z</time>
      </trkpt>
      <trkpt lat="51.17076010" lon="39.30781600">
        <ele>109.00000</ele>
        <time>2010-01-01T08:15:05Z</time>
      </trkpt>
      <trkpt lat="51.17061210" lon="39.31230060">
        <ele>121.00000</ele>
        <time>2010-01-01T08:16:58Z</time>
      </trkpt>
      <trkpt lat="51.17115020" lon="39.32416670">
        <ele>157.00000</ele>
        <time>2010-01-01T08:21:57Z</time>
      </trkpt>
      <trkpt lat="51.17218620" lon="39.33328620">
        <ele>160.00000</ele>
        <time>2010-01-01T08:25:49Z</time>
      </trkpt>
      <trkpt lat="51.17281850" lon="39.33813570">
        <ele>158.00000</ele>
        <time>2010-01-01T08:27:54Z</time>
      </trkpt>
      <trkpt lat="51.17232070" lon="39.34453010">
        <ele>154.00000</ele>
        <time>2010-01-01T08:30:35Z</time>
      </trkpt>
      <trkpt lat="51.17179600" lon="39.34693330">
        <ele>154.00000</ele>
        <time>2010-01-01T08:31:39Z</time>
      </trkpt>
      <trkpt lat="51.17084080" lon="39.35017340">
        <ele>154.00000</ele>
        <time>2010-01-01T08:33:09Z</time>
      </trkpt>
      <trkpt lat="51.16863430" lon="39.35560220">
        <ele>159.00000</ele>
        <time>2010-01-01T08:35:51Z</time>
      </trkpt>
      <trkpt lat="51.16770590" lon="39.35824150">
        <ele>163.00000</ele>
        <time>2010-01-01T08:37:07Z</time>
      </trkpt>
      <trkpt lat="51.16498800" lon="39.36933510">
        <ele>154.00000</ele>
        <time>2010-01-01T08:42:06Z</time>
      </trkpt>
      <trkpt lat="51.16399220" lon="39.37839030">
        <ele>137.00000</ele>
        <time>2010-01-01T08:45:57Z</time>
      </trkpt>
      <trkpt lat="51.16348090" lon="39.38469880">
        <ele>120.00000</ele>
        <time>2010-01-01T08:48:37Z</time>
      </trkpt>
      <trkpt lat="51.16240440" lon="39.39102880">
        <ele>92.000000</ele>
        <time>2010-01-01T08:51:21Z</time>
      </trkpt>
      <trkpt lat="51.16155660" lon="39.39918270">
        <ele>92.000000</ele>
        <time>2010-01-01T08:54:49Z</time>
      </trkpt>
      <trkpt lat="51.16275430" lon="39.40752980">
        <ele>89.000000</ele>
        <time>2010-01-01T08:58:24Z</time>
      </trkpt>
      <trkpt lat="51.15994180" lon="39.41171400">
        <ele>91.000000</ele>
        <time>2010-01-01T09:00:58Z</time>
      </trkpt>
      <trkpt lat="51.15673890" lon="39.41576950">
        <ele>94.000000</ele>
        <time>2010-01-01T09:03:42Z</time>
      </trkpt>
      <trkpt lat="51.15574300" lon="39.41261520">
        <ele>92.000000</ele>
        <time>2010-01-01T09:05:10Z</time>
      </trkpt>
      <trkpt lat="51.15431640" lon="39.41021200">
        <ele>91.000000</ele>
        <time>2010-01-01T09:06:33Z</time>
      </trkpt>
      <trkpt lat="51.15307810" lon="39.40894600">
        <ele>92.000000</ele>
        <time>2010-01-01T09:07:32Z</time>
      </trkpt>
      <trkpt lat="51.15142260" lon="39.40950390">
        <ele>94.000000</ele>
        <time>2010-01-01T09:08:40Z</time>
      </trkpt>
      <trkpt lat="51.14500200" lon="39.40703630">
        <ele>91.000000</ele>
        <time>2010-01-01T09:13:04Z</time>
      </trkpt>
      <trkpt lat="51.14372310" lon="39.40770140">
        <ele>91.000000</ele>
        <time>2010-01-01T09:13:58Z</time>
      </trkpt>
      <trkpt lat="51.13968440" lon="39.40999740">
        <ele>94.000000</ele>
        <time>2010-01-01T09:16:50Z</time>
      </trkpt>
      <trkpt lat="51.13812260" lon="39.41109180">
        <ele>96.000000</ele>
        <time>2010-01-01T09:17:58Z</time>
      </trkpt>
      <trkpt lat="51.13367940" lon="39.41671370">
        <ele>114.00000</ele>
        <time>2010-01-01T09:21:45Z</time>
      </trkpt>
      <trkpt lat="51.12869720" lon="39.42336550">
        <ele>123.00000</ele>
        <time>2010-01-01T09:26:05Z</time>
      </trkpt>
      <trkpt lat="51.12432040" lon="39.42690610">
        <ele>123.00000</ele>
        <time>2010-01-01T09:29:22Z</time>
      </trkpt>
      <trkpt lat="51.12110160" lon="39.42967410">
        <ele>125.00000</ele>
        <time>2010-01-01T09:31:48Z</time>
      </trkpt>
      <trkpt lat="51.11423220" lon="39.43578950">
        <ele>132.00000</ele>
        <time>2010-01-01T09:37:03Z</time>
      </trkpt>
      <trkpt lat="51.09856330" lon="39.44932930">
        <ele>142.00000</ele>
        <time>2010-01-01T09:48:57Z</time>
      </trkpt>
      <trkpt lat="51.08379230" lon="39.46186060">
        <ele>150.00000</ele>
        <time>2010-01-01T10:00:07Z</time>
      </trkpt>
      <trkpt lat="51.06955600" lon="39.46357720">
        <ele>160.00000</ele>
        <time>2010-01-01T10:09:38Z</time>
      </trkpt>
      <trkpt lat="51.05520730" lon="39.46529380">
        <ele>174.00000</ele>
        <time>2010-01-01T10:19:14Z</time>
      </trkpt>
      <trkpt lat="51.04301280" lon="39.47250360">
        <ele>173.00000</ele>
        <time>2010-01-01T10:27:55Z</time>
      </trkpt>
      <trkpt lat="51.03232650" lon="39.47816840">
        <ele>171.00000</ele>
        <time>2010-01-01T10:35:26Z</time>
      </trkpt>
      <trkpt lat="51.02088190" lon="39.47902670">
        <ele>175.00000</ele>
        <time>2010-01-01T10:43:05Z</time>
      </trkpt>
      <trkpt lat="51.00684220" lon="39.47799680">
        <ele>166.00000</ele>
        <time>2010-01-01T10:52:27Z</time>
      </trkpt>
      <trkpt lat="51.00360170" lon="39.47422020">
        <ele>166.00000</ele>
        <time>2010-01-01T10:55:08Z</time>
      </trkpt>
      <trkpt lat="50.98712550" lon="39.47439190">
        <ele>133.00000</ele>
        <time>2010-01-01T11:06:08Z</time>
      </trkpt>
      <trkpt lat="50.98674730" lon="39.48477740">
        <ele>129.00000</ele>
        <time>2010-01-01T11:10:30Z</time>
      </trkpt>
      <trkpt lat="50.98663920" lon="39.49198720">
        <ele>128.00000</ele>
        <time>2010-01-01T11:13:32Z</time>
      </trkpt>
      <trkpt lat="50.98680130" lon="39.49739450">
        <ele>118.00000</ele>
        <time>2010-01-01T11:15:48Z</time>
      </trkpt>
      <trkpt lat="50.98690930" lon="39.49829570">
        <ele>117.00000</ele>
        <time>2010-01-01T11:16:11Z</time>
      </trkpt>
      <trkpt lat="50.98624750" lon="39.50280180">
        <ele>103.00000</ele>
        <time>2010-01-01T11:18:08Z</time>
      </trkpt>
      <trkpt lat="50.98847620" lon="39.50284480">
        <ele>108.00000</ele>
        <time>2010-01-01T11:19:37Z</time>
      </trkpt>
      <trkpt lat="50.99146120" lon="39.50318810">
        <ele>118.00000</ele>
        <time>2010-01-01T11:21:37Z</time>
      </trkpt>
      <trkpt lat="50.99306840" lon="39.50456140">
        <ele>119.00000</ele>
        <time>2010-01-01T11:22:50Z</time>
      </trkpt>
      <trkpt lat="50.99459450" lon="39.50449700">
        <ele>119.00000</ele>
        <time>2010-01-01T11:23:51Z</time>
      </trkpt>
      <trkpt lat="50.99629610" lon="39.50160020">
        <ele>125.00000</ele>
        <time>2010-01-01T11:25:31Z</time>
      </trkpt>
      <trkpt lat="50.99925360" lon="39.50127840">
        <ele>132.00000</ele>
        <time>2010-01-01T11:27:29Z</time>
      </trkpt>
      <trkpt lat="51.00349370" lon="39.50138560">
        <ele>138.00000</ele>
        <time>2010-01-01T11:30:19Z</time>
      </trkpt>
      <trkpt lat="51.00535700" lon="39.50121400">
        <ele>138.00000</ele>
        <time>2010-01-01T11:31:34Z</time>
      </trkpt>
      <trkpt lat="51.00601860" lon="39.49589250">
        <ele>150.00000</ele>
        <time>2010-01-01T11:33:51Z</time>
      </trkpt>
      <trkpt lat="51.00636970" lon="39.48760980">
        <ele>156.00000</ele>
        <time>2010-01-01T11:37:20Z</time>
      </trkpt>
      <trkpt lat="51.00646420" lon="39.47829720">
        <ele>166.00000</ele>
        <time>2010-01-01T11:41:14Z</time>
      </trkpt>
      <trkpt lat="51.01127060" lon="39.47864050">
        <ele>167.00000</ele>
        <time>2010-01-01T11:44:27Z</time>
      </trkpt>
      <trkpt lat="51.01764240" lon="39.47902670">
        <ele>170.00000</ele>
        <time>2010-01-01T11:48:42Z</time>
      </trkpt>
      <trkpt lat="51.02663160" lon="39.47834010">
        <ele>174.00000</ele>
        <time>2010-01-01T11:54:42Z</time>
      </trkpt>
      <trkpt lat="51.03130100" lon="39.47851180">
        <ele>169.00000</ele>
        <time>2010-01-01T11:57:49Z</time>
      </trkpt>
      <trkpt lat="51.04492850" lon="39.47104450">
        <ele>178.00000</ele>
        <time>2010-01-01T12:07:26Z</time>
      </trkpt>
      <trkpt lat="51.05547700" lon="39.46555130">
        <ele>174.00000</ele>
        <time>2010-01-01T12:14:51Z</time>
      </trkpt>
      <trkpt lat="51.06734460" lon="39.46349140">
        <ele>164.00000</ele>
        <time>2010-01-01T12:22:49Z</time>
      </trkpt>
      <trkpt lat="51.07791500" lon="39.46224680">
        <ele>157.00000</ele>
        <time>2010-01-01T12:29:53Z</time>
      </trkpt>
      <trkpt lat="51.08384630" lon="39.46138850">
        <ele>151.00000</ele>
        <time>2010-01-01T12:33:51Z</time>
      </trkpt>
      <trkpt lat="51.09522140" lon="39.45168970">
        <ele>146.00000</ele>
        <time>2010-01-01T12:42:28Z</time>
      </trkpt>
      <trkpt lat="51.11225200" lon="39.43778510">
        <ele>132.00000</ele>
        <time>2010-01-01T12:55:14Z</time>
      </trkpt>
      <trkpt lat="51.12523620" lon="39.42645540">
        <ele>121.00000</ele>
        <time>2010-01-01T13:05:06Z</time>
      </trkpt>
      <trkpt lat="51.12962640" lon="39.42250720">
        <ele>122.00000</ele>
        <time>2010-01-01T13:08:28Z</time>
      </trkpt>
      <trkpt lat="51.13829760" lon="39.41122050">
        <ele>96.000000</ele>
        <time>2010-01-01T13:15:56Z</time>
      </trkpt>
      <trkpt lat="51.14088250" lon="39.41671370">
        <ele>96.000000</ele>
        <time>2010-01-01T13:18:49Z</time>
      </trkpt>
      <trkpt lat="51.14422120" lon="39.42302220">
        <ele>97.000000</ele>
        <time>2010-01-01T13:22:16Z</time>
      </trkpt>
      <trkpt lat="51.14613270" lon="39.42388050">
        <ele>99.000000</ele>
        <time>2010-01-01T13:23:36Z</time>
      </trkpt>
      <trkpt lat="51.15079000" lon="39.42795750">
        <ele>100.00000</ele>
        <time>2010-01-01T13:27:08Z</time>
      </trkpt>
      <trkpt lat="51.15151690" lon="39.42722790">
        <ele>96.000000</ele>
        <time>2010-01-01T13:27:43Z</time>
      </trkpt>
      <trkpt lat="51.15272820" lon="39.42787170">
        <ele>96.000000</ele>
        <time>2010-01-01T13:28:34Z</time>
      </trkpt>
      <trkpt lat="51.15633510" lon="39.42031860">
        <ele>92.000000</ele>
        <time>2010-01-01T13:32:32Z</time>
      </trkpt>
      <trkpt lat="51.15719650" lon="39.41847320">
        <ele>95.000000</ele>
        <time>2010-01-01T13:33:30Z</time>
      </trkpt>
      <trkpt lat="51.15690040" lon="39.41628450">
        <ele>94.000000</ele>
        <time>2010-01-01T13:34:26Z</time>
      </trkpt>
      <trkpt lat="51.15988800" lon="39.41216460">
        <ele>89.000000</ele>
        <time>2010-01-01T13:37:04Z</time>
      </trkpt>
      <trkpt lat="51.16077610" lon="39.41401000">
        <ele>86.000000</ele>
        <time>2010-01-01T13:38:03Z</time>
      </trkpt>
      <trkpt lat="51.16341360" lon="39.40941810">
        <ele>89.000000</ele>
        <time>2010-01-01T13:40:39Z</time>
      </trkpt>
      <trkpt lat="51.16395190" lon="39.40877430">
        <ele>90.000000</ele>
        <time>2010-01-01T13:41:06Z</time>
      </trkpt>
      <trkpt lat="51.16586260" lon="39.40825930">
        <ele>94.000000</ele>
        <time>2010-01-01T13:42:24Z</time>
      </trkpt>
      <trkpt lat="51.17035650" lon="39.40671440">
        <ele>98.000000</ele>
        <time>2010-01-01T13:45:28Z</time>
      </trkpt>
      <trkpt lat="51.17075340" lon="39.40649980">
        <ele>100.00000</ele>
        <time>2010-01-01T13:45:44Z</time>
      </trkpt>
      <trkpt lat="51.17071300" lon="39.40523380">
        <ele>103.00000</ele>
        <time>2010-01-01T13:46:16Z</time>
      </trkpt>
      <trkpt lat="51.17310100" lon="39.40470810">
        <ele>110.00000</ele>
        <time>2010-01-01T13:47:53Z</time>
      </trkpt>
      <trkpt lat="51.17495750" lon="39.40435400">
        <ele>100.00000</ele>
        <time>2010-01-01T13:49:07Z</time>
      </trkpt>
      <trkpt lat="51.17617500" lon="39.40447210">
        <ele>105.00000</ele>
        <time>2010-01-01T13:49:56Z</time>
      </trkpt>
      <trkpt lat="51.17762780" lon="39.40486900">
        <ele>111.00000</ele>
        <time>2010-01-01T13:50:55Z</time>
      </trkpt>
      <trkpt lat="51.17805830" lon="39.40536260">
        <ele>111.00000</ele>
        <time>2010-01-01T13:51:17Z</time>
      </trkpt>
      <trkpt lat="51.18009620" lon="39.40654270">
        <ele>115.00000</ele>
        <time>2010-01-01T13:52:43Z</time>
      </trkpt>
      <trkpt lat="51.18178430" lon="39.40646760">
        <ele>107.00000</ele>
        <time>2010-01-01T13:53:51Z</time>
      </trkpt>
      <trkpt lat="51.18335800" lon="39.40666070">
        <ele>113.00000</ele>
        <time>2010-01-01T13:54:54Z</time>
      </trkpt>
      <trkpt lat="51.18626990" lon="39.40651050">
        <ele>121.00000</ele>
        <time>2010-01-01T13:56:51Z</time>
      </trkpt>
      <trkpt lat="51.18827390" lon="39.40541620">
        <ele>124.00000</ele>
        <time>2010-01-01T13:58:16Z</time>
      </trkpt>
      <trkpt lat="51.18976670" lon="39.40372100">
        <ele>122.00000</ele>
        <time>2010-01-01T13:59:29Z</time>
      </trkpt>
      <trkpt lat="51.19187800" lon="39.40157530">
        <ele>120.00000</ele>
        <time>2010-01-01T14:01:09Z</time>
      </trkpt>
      <trkpt lat="51.19396910" lon="39.39867850">
        <ele>121.00000</ele>
        <time>2010-01-01T14:03:00Z</time>
      </trkpt>
      <trkpt lat="51.19497760" lon="39.39783090">
        <ele>124.00000</ele>
        <time>2010-01-01T14:03:46Z</time>
      </trkpt>
      <trkpt lat="51.19737780" lon="39.39526670">
        <ele>129.00000</ele>
        <time>2010-01-01T14:05:41Z</time>
      </trkpt>
      <trkpt lat="51.19979810" lon="39.39262740">
        <ele>138.00000</ele>
        <time>2010-01-01T14:07:39Z</time>
      </trkpt>
      <trkpt lat="51.20182160" lon="39.38976280">
        <ele>142.00000</ele>
        <time>2010-01-01T14:09:27Z</time>
      </trkpt>
      <trkpt lat="51.20466510" lon="39.38517090">
        <ele>141.00000</ele>
        <time>2010-01-01T14:12:09Z</time>
      </trkpt>
      <trkpt lat="51.20767650" lon="39.38060040">
        <ele>141.00000</ele>
        <time>2010-01-01T14:14:55Z</time>
      </trkpt>
      <trkpt lat="51.21262330" lon="39.37261810">
        <ele>142.00000</ele>
        <time>2010-01-01T14:19:37Z</time>
      </trkpt>
      <trkpt lat="51.21638690" lon="39.36639540">
        <ele>146.00000</ele>
        <time>2010-01-01T14:23:14Z</time>
      </trkpt>
      <trkpt lat="51.21873890" lon="39.36403510">
        <ele>147.00000</ele>
        <time>2010-01-01T14:25:05Z</time>
      </trkpt>
      <trkpt lat="51.22252890" lon="39.36206100">
        <ele>146.00000</ele>
        <time>2010-01-01T14:27:44Z</time>
      </trkpt>
      <trkpt lat="51.22914030" lon="39.35905690">
        <ele>141.00000</ele>
        <time>2010-01-01T14:32:19Z</time>
      </trkpt>
      <trkpt lat="51.23571050" lon="39.35633180">
        <ele>141.00000</ele>
        <time>2010-01-01T14:36:51Z</time>
      </trkpt>
      <trkpt lat="51.24076180" lon="39.35433620">
        <ele>144.00000</ele>
        <time>2010-01-01T14:40:20Z</time>
      </trkpt>
      <trkpt lat="51.24184990" lon="39.35553780">
        <ele>143.00000</ele>
        <time>2010-01-01T14:41:12Z</time>
      </trkpt>
      <trkpt lat="51.24849890" lon="39.35283420">
        <ele>142.00000</ele>
        <time>2010-01-01T14:45:47Z</time>
      </trkpt>
      <trkpt lat="51.25105080" lon="39.35165400">
        <ele>138.00000</ele>
        <time>2010-01-01T14:47:33Z</time>
      </trkpt>
      <trkpt lat="51.25651670" lon="39.34935800">
        <ele>144.00000</ele>
        <time>2010-01-01T14:51:20Z</time>
      </trkpt>
      <trkpt lat="51.25944410" lon="39.34794180">
        <ele>144.00000</ele>
        <time>2010-01-01T14:53:22Z</time>
      </trkpt>
      <trkpt lat="51.26014240" lon="39.34811350">
        <ele>142.00000</ele>
        <time>2010-01-01T14:53:50Z</time>
      </trkpt>
      <trkpt lat="51.26502980" lon="39.34586040">
        <ele>144.00000</ele>
        <time>2010-01-01T14:57:14Z</time>
      </trkpt>
      <trkpt lat="51.26625160" lon="39.34547420">
        <ele>145.00000</ele>
        <time>2010-01-01T14:58:04Z</time>
      </trkpt>
      <trkpt lat="51.26779560" lon="39.34457300">
        <ele>147.00000</ele>
        <time>2010-01-01T14:59:10Z</time>
      </trkpt>
      <trkpt lat="51.27615900" lon="39.34096810">
        <ele>145.00000</ele>
        <time>2010-01-01T15:04:56Z</time>
      </trkpt>
      <trkpt lat="51.27811880" lon="39.34030290">
        <ele>148.00000</ele>
        <time>2010-01-01T15:06:17Z</time>
      </trkpt>
      <trkpt lat="51.28546040" lon="39.33708420">
        <ele>147.00000</ele>
        <time>2010-01-01T15:11:21Z</time>
      </trkpt>
      <trkpt lat="51.28970110" lon="39.33517450">
        <ele>145.00000</ele>
        <time>2010-01-01T15:14:18Z</time>
      </trkpt>
      <trkpt lat="51.29504160" lon="39.33259960">
        <ele>149.00000</ele>
        <time>2010-01-01T15:18:01Z</time>
      </trkpt>
      <trkpt lat="51.30537210" lon="39.32847970">
        <ele>149.00000</ele>
        <time>2010-01-01T15:25:07Z</time>
      </trkpt>
      <trkpt lat="51.31325930" lon="39.32461730">
        <ele>147.00000</ele>
        <time>2010-01-01T15:30:37Z</time>
      </trkpt>
      <trkpt lat="51.32170830" lon="39.32114120">
        <ele>146.00000</ele>
        <time>2010-01-01T15:36:27Z</time>
      </trkpt>
      <trkpt lat="51.32652220" lon="39.31953190">
        <ele>149.00000</ele>
        <time>2010-01-01T15:39:43Z</time>
      </trkpt>
      <trkpt lat="51.32948540" lon="39.31839460">
        <ele>145.00000</ele>
        <time>2010-01-01T15:41:45Z</time>
      </trkpt>
      <trkpt lat="51.33305170" lon="39.31680670">
        <ele>145.00000</ele>
        <time>2010-01-01T15:44:14Z</time>
      </trkpt>
      <trkpt lat="51.33715390" lon="39.31444640">
        <ele>146.00000</ele>
        <time>2010-01-01T15:47:08Z</time>
      </trkpt>
      <trkpt lat="51.34094750" lon="39.31431770">
        <ele>144.00000</ele>
        <time>2010-01-01T15:49:40Z</time>
      </trkpt>
      <trkpt lat="51.34322610" lon="39.31210750">
        <ele>144.00000</ele>
        <time>2010-01-01T15:51:27Z</time>
      </trkpt>
      <trkpt lat="51.34281060" lon="39.31064840">
        <ele>147.00000</ele>
        <time>2010-01-01T15:52:07Z</time>
      </trkpt>
      <trkpt lat="51.34567890" lon="39.30813780">
        <ele>144.00000</ele>
        <time>2010-01-01T15:54:18Z</time>
      </trkpt>
      <trkpt lat="51.34750170" lon="39.30667870">
        <ele>144.00000</ele>
        <time>2010-01-01T15:55:39Z</time>
      </trkpt>
      <trkpt lat="51.35045010" lon="39.30333130">
        <ele>146.00000</ele>
        <time>2010-01-01T15:58:04Z</time>
      </trkpt>
      <trkpt lat="51.35039650" lon="39.30170050">
        <ele>145.00000</ele>
        <time>2010-01-01T15:58:45Z</time>
      </trkpt>
      <trkpt lat="51.35365290" lon="39.29846040">
        <ele>147.00000</ele>
        <time>2010-01-01T16:01:18Z</time>
      </trkpt>
      <trkpt lat="51.35617220" lon="39.29603570">
        <ele>145.00000</ele>
        <time>2010-01-01T16:03:16Z</time>
      </trkpt>
      <trkpt lat="51.35827590" lon="39.29412600">
        <ele>146.00000</ele>
        <time>2010-01-01T16:04:53Z</time>
      </trkpt>
      <trkpt lat="51.36186680" lon="39.29142230">
        <ele>146.00000</ele>
        <time>2010-01-01T16:07:32Z</time>
      </trkpt>
      <trkpt lat="51.36174620" lon="39.28955550">
        <ele>147.00000</ele>
        <time>2010-01-01T16:08:18Z</time>
      </trkpt>
      <trkpt lat="51.36387640" lon="39.28818220">
        <ele>149.00000</ele>
        <time>2010-01-01T16:09:50Z</time>
      </trkpt>
      <trkpt lat="51.37239650" lon="39.28193800">
        <ele>149.00000</ele>
        <time>2010-01-01T16:16:05Z</time>
      </trkpt>
      <trkpt lat="51.37992390" lon="39.27648780">
        <ele>144.00000</ele>
        <time>2010-01-01T16:21:36Z</time>
      </trkpt>
      <trkpt lat="51.38544150" lon="39.27234640">
        <ele>141.00000</ele>
        <time>2010-01-01T16:25:40Z</time>
      </trkpt>
      <trkpt lat="51.38961930" lon="39.26771160">
        <ele>140.00000</ele>
        <time>2010-01-01T16:29:03Z</time>
      </trkpt>
      <trkpt lat="51.39055660" lon="39.26505080">
        <ele>141.00000</ele>
        <time>2010-01-01T16:30:20Z</time>
      </trkpt>
      <trkpt lat="51.39157420" lon="39.26453590">
        <ele>143.00000</ele>
        <time>2010-01-01T16:31:02Z</time>
      </trkpt>
      <trkpt lat="51.39229730" lon="39.26372050">
        <ele>147.00000</ele>
        <time>2010-01-01T16:31:38Z</time>
      </trkpt>
      <trkpt lat="51.39480100" lon="39.26011560">
        <ele>150.00000</ele>
        <time>2010-01-01T16:33:53Z</time>
      </trkpt>
      <trkpt lat="51.39984820" lon="39.25464390">
        <ele>155.00000</ele>
        <time>2010-01-01T16:37:56Z</time>
      </trkpt>
      <trkpt lat="51.40243180" lon="39.25256250">
        <ele>155.00000</ele>
        <time>2010-01-01T16:39:52Z</time>
      </trkpt>
      <trkpt lat="51.41216260" lon="39.24522390">
        <ele>150.00000</ele>
        <time>2010-01-01T16:47:03Z</time>
      </trkpt>
      <trkpt lat="51.43581840" lon="39.22977440">
        <ele>149.00000</ele>
        <time>2010-01-01T17:04:05Z</time>
      </trkpt>
      <trkpt lat="51.44769520" lon="39.23200600">
        <ele>150.00000</ele>
        <time>2010-01-01T17:12:04Z</time>
      </trkpt>
      <trkpt lat="51.46202890" lon="39.23595420">
        <ele>143.00000</ele>
        <time>2010-01-01T17:21:46Z</time>
      </trkpt>
      <trkpt lat="51.46609280" lon="39.23612590">
        <ele>139.00000</ele>
        <time>2010-01-01T17:24:29Z</time>
      </trkpt>
      <trkpt lat="51.46999600" lon="39.23715590">
        <ele>138.00000</ele>
        <time>2010-01-01T17:27:07Z</time>
      </trkpt>
      <trkpt lat="51.48031380" lon="39.23990240">
        <ele>123.00000</ele>
        <time>2010-01-01T17:34:06Z</time>
      </trkpt>
      <trkpt lat="51.48373470" lon="39.24110410">
        <ele>119.00000</ele>
        <time>2010-01-01T17:36:26Z</time>
      </trkpt>
      <trkpt lat="51.48715540" lon="39.24153320">
        <ele>113.00000</ele>
        <time>2010-01-01T17:38:43Z</time>
      </trkpt>
      <trkpt lat="51.49672120" lon="39.24101820">
        <ele>110.00000</ele>
        <time>2010-01-01T17:45:06Z</time>
      </trkpt>
      <trkpt lat="51.50660550" lon="39.24041740">
        <ele>117.00000</ele>
        <time>2010-01-01T17:51:42Z</time>
      </trkpt>
      <trkpt lat="51.51445810" lon="39.23981660">
        <ele>112.00000</ele>
        <time>2010-01-01T17:56:57Z</time>
      </trkpt>
      <trkpt lat="51.51456490" lon="39.24093240">
        <ele>115.00000</ele>
        <time>2010-01-01T17:57:25Z</time>
      </trkpt>
      <trkpt lat="51.52193540" lon="39.24093240">
        <ele>121.00000</ele>
        <time>2010-01-01T18:02:20Z</time>
      </trkpt>
      <trkpt lat="51.53128030" lon="39.24239150">
        <ele>110.00000</ele>
        <time>2010-01-01T18:08:36Z</time>
      </trkpt>
      <trkpt lat="51.53549830" lon="39.24333570">
        <ele>103.00000</ele>
        <time>2010-01-01T18:11:27Z</time>
      </trkpt>
      <trkpt lat="51.53576520" lon="39.24221990">
        <ele>105.00000</ele>
        <time>2010-01-01T18:11:56Z</time>
      </trkpt>
      <trkpt lat="51.53766050" lon="39.24230570">
        <ele>99.000000</ele>
        <time>2010-01-01T18:13:12Z</time>
      </trkpt>
      <trkpt lat="51.53795410" lon="39.24166200">
        <ele>98.000000</ele>
        <time>2010-01-01T18:13:32Z</time>
      </trkpt>
      <trkpt lat="51.53966240" lon="39.24264900">
        <ele>100.00000</ele>
        <time>2010-01-01T18:14:45Z</time>
      </trkpt>
      <trkpt lat="51.53990270" lon="39.24230570">
        <ele>101.00000</ele>
        <time>2010-01-01T18:14:58Z</time>
      </trkpt>
      <trkpt lat="51.54721570" lon="39.24312110">
        <ele>111.00000</ele>
        <time>2010-01-01T18:19:51Z</time>
      </trkpt>
      <trkpt lat="51.54806970" lon="39.24123280">
        <ele>112.00000</ele>
        <time>2010-01-01T18:20:49Z</time>
      </trkpt>
      <trkpt lat="51.55100520" lon="39.24196240">
        <ele>114.00000</ele>
        <time>2010-01-01T18:22:48Z</time>
      </trkpt>
      <trkpt lat="51.55279310" lon="39.24204820">
        <ele>112.00000</ele>
        <time>2010-01-01T18:24:00Z</time>
      </trkpt>
      <trkpt lat="51.55303330" lon="39.24088950">
        <ele>112.00000</ele>
        <time>2010-01-01T18:24:30Z</time>
      </trkpt>
      <trkpt lat="51.55476770" lon="39.24123280">
        <ele>114.00000</ele>
        <time>2010-01-01T18:25:40Z</time>
      </trkpt>
      <trkpt lat="51.55700900" lon="39.24462310">
        <ele>115.00000</ele>
        <time>2010-01-01T18:27:43Z</time>
      </trkpt>
      <trkpt lat="51.56277200" lon="39.24513810">
        <ele>114.00000</ele>
        <time>2010-01-01T18:31:34Z</time>
      </trkpt>
      <trkpt lat="51.57330880" lon="39.24655430">
        <ele>110.00000</ele>
        <time>2010-01-01T18:38:38Z</time>
      </trkpt>
      <trkpt lat="51.57685610" lon="39.24668310">
        <ele>116.00000</ele>
        <time>2010-01-01T18:41:00Z</time>
      </trkpt>
      <trkpt lat="51.58813630" lon="39.24814220">
        <ele>113.00000</ele>
        <time>2010-01-01T18:48:33Z</time>
      </trkpt>
      <trkpt lat="51.59085590" lon="39.24844260">
        <ele>116.00000</ele>
        <time>2010-01-01T18:50:22Z</time>
      </trkpt>
      <trkpt lat="51.59506830" lon="39.24848550">
        <ele>115.00000</ele>
        <time>2010-01-01T18:53:10Z</time>
      </trkpt>
      <trkpt lat="51.59925370" lon="39.24973010">
        <ele>115.00000</ele>
        <time>2010-01-01T18:56:01Z</time>
      </trkpt>
      <trkpt lat="51.60045330" lon="39.24376480">
        <ele>110.00000</ele>
        <time>2010-01-01T18:58:37Z</time>
      </trkpt>
      <trkpt lat="51.60554440" lon="39.24397940">
        <ele>113.00000</ele>
        <time>2010-01-01T19:02:00Z</time>
      </trkpt>
      <trkpt lat="51.60940900" lon="39.24513810">
        <ele>114.00000</ele>
        <time>2010-01-01T19:04:38Z</time>
      </trkpt>
      <trkpt lat="51.61921560" lon="39.25058840">
        <ele>108.00000</ele>
        <time>2010-01-01T19:11:33Z</time>
      </trkpt>
      <trkpt lat="51.62158690" lon="39.24187660">
        <ele>105.00000</ele>
        <time>2010-01-01T19:15:30Z</time>
      </trkpt>
      <trkpt lat="51.62307900" lon="39.23685550">
        <ele>96.000000</ele>
        <time>2010-01-01T19:17:48Z</time>
      </trkpt>
      <trkpt lat="51.62409140" lon="39.23337930">
        <ele>97.000000</ele>
        <time>2010-01-01T19:19:23Z</time>
      </trkpt>
      <trkpt lat="51.62867370" lon="39.23024650">
        <ele>103.00000</ele>
        <time>2010-01-01T19:22:43Z</time>
      </trkpt>
      <trkpt lat="51.63237650" lon="39.23200600">
        <ele>103.00000</ele>
        <time>2010-01-01T19:25:17Z</time>
      </trkpt>
      <trkpt lat="51.64452170" lon="39.23814290">
        <ele>101.00000</ele>
        <time>2010-01-01T19:33:47Z</time>
      </trkpt>
      <trkpt lat="51.65639740" lon="39.24440860">
        <ele>109.00000</ele>
        <time>2010-01-01T19:42:07Z</time>
      </trkpt>
      <trkpt lat="51.66113620" lon="39.24672600">
        <ele>103.00000</ele>
        <time>2010-01-01T19:45:25Z</time>
      </trkpt>
      <trkpt lat="51.67119780" lon="39.25196170">
        <ele>110.00000</ele>
        <time>2010-01-01T19:52:28Z</time>
      </trkpt>
      <trkpt lat="51.67263490" lon="39.25286290">
        <ele>110.00000</ele>
        <time>2010-01-01T19:53:30Z</time>
      </trkpt>
      <trkpt lat="51.67415190" lon="39.24951550">
        <ele>108.00000</ele>
        <time>2010-01-01T19:55:13Z</time>
      </trkpt>
      <trkpt lat="51.67484390" lon="39.24664020">
        <ele>105.00000</ele>
        <time>2010-01-01T19:56:29Z</time>
      </trkpt>
      <trkpt lat="51.67487050" lon="39.24423690">
        <ele>100.00000</ele>
        <time>2010-01-01T19:57:29Z</time>
      </trkpt>
      <trkpt lat="51.67428500" lon="39.24277780">
        <ele>95.000000</ele>
        <time>2010-01-01T19:58:12Z</time>
      </trkpt>
      <trkpt lat="51.67367290" lon="39.24054620">
        <ele>91.000000</ele>
        <time>2010-01-01T19:59:13Z</time>
      </trkpt>
      <trkpt lat="51.67228900" lon="39.23694130">
        <ele>91.000000</ele>
        <time>2010-01-01T20:00:58Z</time>
      </trkpt>
      <trkpt lat="51.67130420" lon="39.23432350">
        <ele>91.000000</ele>
        <time>2010-01-01T20:02:14Z</time>
      </trkpt>
      <trkpt lat="51.67042590" lon="39.23170560">
        <ele>91.000000</ele>
        <time>2010-01-01T20:03:28Z</time>
      </trkpt>
      <trkpt lat="51.66981380" lon="39.22990320">
        <ele>91.000000</ele>
        <time>2010-01-01T20:04:19Z</time>
      </trkpt>
      <trkpt lat="51.66930810" lon="39.22861570">
        <ele>91.000000</ele>
        <time>2010-01-01T20:04:57Z</time>
      </trkpt>
      <trkpt lat="51.66861600" lon="39.22780030">
        <ele>91.000000</ele>
        <time>2010-01-01T20:05:31Z</time>
      </trkpt>
      <trkpt lat="51.66805710" lon="39.22848700">
        <ele>91.000000</ele>
        <time>2010-01-01T20:05:59Z</time>
      </trkpt>
      <trkpt lat="51.66773770" lon="39.22878740">
        <ele>91.000000</ele>
        <time>2010-01-01T20:06:14Z</time>
      </trkpt>
    </trkseg>
  </trk>
</gpx>

